sensor_id;sensor_type;location;lat;lon;timestamp;temperature;humidity
15455;DHT22;21057;51.024;7.540;2024-03-23T00:52:25;8.70;99.90
15455;DHT22;21057;51.024;7.540;2024-03-23T00:54:52;8.70;99.90
15455;DHT22;21057;51.024;7.540;2024-03-23T00:57:18;8.60;99.90
15455;DHT22;21057;51.024;7.540;2024-03-23T00:59:45;8.60;99.90
15455;DHT22;21057;51.024;7.540;2024-03-23T01:02:11;8.60;99.90
15455;DHT22;21057;51.024;7.540;2024-03-23T01:04:37;8.60;99.90
15455;DHT22;21057;51.024;7.540;2024-03-23T01:07:03;8.60;99.90
15455;DHT22;21057;51.024;7.540;2024-03-23T01:09:32;8.80;99.90
15455;DHT22;21057;51.024;7.540;2024-03-23T01:11:58;8.70;99.90
15455;DHT22;21057;51.024;7.540;2024-03-23T01:14:24;8.90;99.90
15455;DHT22;21057;51.024;7.540;2024-03-23T01:16:50;8.70;99.90
15455;DHT22;21057;51.024;7.540;2024-03-23T01:19:17;8.60;99.90
15455;DHT22;21057;51.024;7.540;2024-03-23T01:21:43;8.30;99.90
15455;DHT22;21057;51.024;7.540;2024-03-23T01:24:10;8.50;99.90
15455;DHT22;21057;51.024;7.540;2024-03-23T01:26:37;8.50;99.90
15455;DHT22;21057;51.024;7.540;2024-03-23T01:29:05;8.50;99.90
15455;DHT22;21057;51.024;7.540;2024-03-23T01:31:31;8.70;99.90
15455;DHT22;21057;51.024;7.540;2024-03-23T01:33:57;8.80;99.90
15455;DHT22;21057;51.024;7.540;2024-03-23T01:36:24;8.70;99.90
15455;DHT22;21057;51.024;7.540;2024-03-23T01:38:51;8.60;99.90
15455;DHT22;21057;51.024;7.540;2024-03-23T01:41:17;8.70;99.90
15455;DHT22;21057;51.024;7.540;2024-03-23T01:43:45;8.40;99.90
15455;DHT22;21057;51.024;7.540;2024-03-23T01:46:11;8.40;99.90
15455;DHT22;21057;51.024;7.540;2024-03-23T01:48:38;8.70;99.90
15455;DHT22;21057;51.024;7.540;2024-03-23T01:51:04;8.50;99.90
15455;DHT22;21057;51.024;7.540;2024-03-23T01:53:31;8.50;99.90
15455;DHT22;21057;51.024;7.540;2024-03-23T01:55:57;8.50;99.90
15455;DHT22;21057;51.024;7.540;2024-03-23T01:58:24;8.40;99.90
15455;DHT22;21057;51.024;7.540;2024-03-23T02:00:51;8.40;99.90
15455;DHT22;21057;51.024;7.540;2024-03-23T02:03:25;8.60;99.90
15455;DHT22;21057;51.024;7.540;2024-03-23T02:05:51;8.70;99.90
15455;DHT22;21057;51.024;7.540;2024-03-23T02:08:21;8.80;99.90
15455;DHT22;21057;51.024;7.540;2024-03-23T02:10:47;8.80;99.90
15455;DHT22;21057;51.024;7.540;2024-03-23T02:13:14;8.80;99.90
15455;DHT22;21057;51.024;7.540;2024-03-23T02:15:41;8.90;99.90
15455;DHT22;21057;51.024;7.540;2024-03-23T02:18:09;8.70;99.90
15455;DHT22;21057;51.024;7.540;2024-03-23T02:20:35;8.40;99.90
15455;DHT22;21057;51.024;7.540;2024-03-23T02:23:04;8.30;99.90
15455;DHT22;21057;51.024;7.540;2024-03-23T02:25:31;8.50;99.90
15455;DHT22;21057;51.024;7.540;2024-03-23T02:27:59;8.40;99.90
15455;DHT22;21057;51.024;7.540;2024-03-23T02:30:25;8.50;99.90
15455;DHT22;21057;51.024;7.540;2024-03-23T02:32:52;8.50;99.90
15455;DHT22;21057;51.024;7.540;2024-03-23T02:35:18;8.50;99.90
15455;DHT22;21057;51.024;7.540;2024-03-23T02:37:46;8.50;99.90
15455;DHT22;21057;51.024;7.540;2024-03-23T02:40:14;8.30;99.90
15455;DHT22;21057;51.024;7.540;2024-03-23T02:42:41;8.20;99.90
15455;DHT22;21057;51.024;7.540;2024-03-23T02:45:07;8.10;99.90
15455;DHT22;21057;51.024;7.540;2024-03-23T02:47:33;8.30;99.90
15455;DHT22;21057;51.024;7.540;2024-03-23T02:49:59;8.40;99.90
15455;DHT22;21057;51.024;7.540;2024-03-23T02:52:26;8.40;99.90
15455;DHT22;21057;51.024;7.540;2024-03-23T02:54:53;8.30;99.90
15455;DHT22;21057;51.024;7.540;2024-03-23T02:57:21;7.50;99.90
15455;DHT22;21057;51.024;7.540;2024-03-23T02:59:46;7.20;99.90
15455;DHT22;21057;51.024;7.540;2024-03-23T03:02:14;7.30;99.90
15455;DHT22;21057;51.024;7.540;2024-03-23T03:04:41;7.40;99.90
15455;DHT22;21057;51.024;7.540;2024-03-23T03:07:07;7.00;99.90
15455;DHT22;21057;51.024;7.540;2024-03-23T03:09:34;6.80;99.90
15455;DHT22;21057;51.024;7.540;2024-03-23T03:12:01;6.90;99.90
15455;DHT22;21057;51.024;7.540;2024-03-23T03:14:30;7.00;99.90
15455;DHT22;21057;51.024;7.540;2024-03-23T03:16:56;7.10;99.90
15455;DHT22;21057;51.024;7.540;2024-03-23T03:19:22;7.00;99.90
15455;DHT22;21057;51.024;7.540;2024-03-23T03:21:48;7.00;99.90
15455;DHT22;21057;51.024;7.540;2024-03-23T03:24:15;6.80;99.90
15455;DHT22;21057;51.024;7.540;2024-03-23T03:26:41;6.90;99.90
15455;DHT22;21057;51.024;7.540;2024-03-23T03:29:08;6.80;99.90
15455;DHT22;21057;51.024;7.540;2024-03-23T03:31:35;6.60;99.90
15455;DHT22;21057;51.024;7.540;2024-03-23T03:34:02;6.30;99.90
15455;DHT22;21057;51.024;7.540;2024-03-23T03:36:28;6.00;99.90
15455;DHT22;21057;51.024;7.540;2024-03-23T03:38:55;6.00;99.90
15455;DHT22;21057;51.024;7.540;2024-03-23T03:41:20;5.90;99.90
15455;DHT22;21057;51.024;7.540;2024-03-23T03:43:47;5.80;99.90
15455;DHT22;21057;51.024;7.540;2024-03-23T03:46:13;6.00;99.90
15455;DHT22;21057;51.024;7.540;2024-03-23T03:48:41;6.10;99.90
15455;DHT22;21057;51.024;7.540;2024-03-23T03:51:07;6.20;99.90
15455;DHT22;21057;51.024;7.540;2024-03-23T03:53:34;6.10;99.90
15455;DHT22;21057;51.024;7.540;2024-03-23T03:56:00;5.90;99.90
15455;DHT22;21057;51.024;7.540;2024-03-23T03:58:27;5.80;99.90
15455;DHT22;21057;51.024;7.540;2024-03-23T04:00:53;5.70;99.90
15455;DHT22;21057;51.024;7.540;2024-03-23T04:03:21;5.80;99.90
15455;DHT22;21057;51.024;7.540;2024-03-23T04:05:51;5.90;99.90
15455;DHT22;21057;51.024;7.540;2024-03-23T04:08:19;6.00;99.90
15455;DHT22;21057;51.024;7.540;2024-03-23T04:10:44;6.00;99.90
15455;DHT22;21057;51.024;7.540;2024-03-23T04:13:12;5.90;99.90
15455;DHT22;21057;51.024;7.540;2024-03-23T04:15:38;6.20;99.90
15455;DHT22;21057;51.024;7.540;2024-03-23T04:18:05;6.20;99.90
15455;DHT22;21057;51.024;7.540;2024-03-23T04:20:31;6.30;99.90
15455;DHT22;21057;51.024;7.540;2024-03-23T04:22:59;6.40;99.90
15455;DHT22;21057;51.024;7.540;2024-03-23T04:25:25;6.40;99.90
15455;DHT22;21057;51.024;7.540;2024-03-23T04:27:51;6.30;99.90
15455;DHT22;21057;51.024;7.540;2024-03-23T04:30:17;6.50;99.90
15455;DHT22;21057;51.024;7.540;2024-03-23T04:32:45;6.50;99.90
15455;DHT22;21057;51.024;7.540;2024-03-23T04:35:10;6.50;99.90
15455;DHT22;21057;51.024;7.540;2024-03-23T04:37:38;6.30;99.90
15455;DHT22;21057;51.024;7.540;2024-03-23T04:40:08;6.20;99.90
15455;DHT22;21057;51.024;7.540;2024-03-23T04:42:36;6.50;99.90
15455;DHT22;21057;51.024;7.540;2024-03-23T04:45:04;6.30;99.90
15455;DHT22;21057;51.024;7.540;2024-03-23T04:47:32;6.30;99.90
15455;DHT22;21057;51.024;7.540;2024-03-23T04:50:01;6.20;99.90
15455;DHT22;21057;51.024;7.540;2024-03-23T04:52:28;6.20;99.90
15455;DHT22;21057;51.024;7.540;2024-03-23T04:54:55;6.00;99.90
15455;DHT22;21057;51.024;7.540;2024-03-23T04:57:23;6.00;99.90
15455;DHT22;21057;51.024;7.540;2024-03-23T04:59:49;5.80;99.90
15455;DHT22;21057;51.024;7.540;2024-03-23T05:02:16;5.80;99.90
15455;DHT22;21057;51.024;7.540;2024-03-23T05:04:41;5.90;99.90
15455;DHT22;21057;51.024;7.540;2024-03-23T05:07:08;6.00;99.90
15455;DHT22;21057;51.024;7.540;2024-03-23T05:09:34;5.80;99.90
15455;DHT22;21057;51.024;7.540;2024-03-23T05:12:01;6.20;99.90
15455;DHT22;21057;51.024;7.540;2024-03-23T05:14:29;6.20;99.90
15455;DHT22;21057;51.024;7.540;2024-03-23T05:16:56;6.10;99.90
15455;DHT22;21057;51.024;7.540;2024-03-23T05:19:21;6.20;99.90
15455;DHT22;21057;51.024;7.540;2024-03-23T05:21:49;6.30;99.90
15455;DHT22;21057;51.024;7.540;2024-03-23T05:24:14;6.30;99.90
15455;DHT22;21057;51.024;7.540;2024-03-23T05:26:42;6.30;99.90
15455;DHT22;21057;51.024;7.540;2024-03-23T05:29:07;6.40;99.90
15455;DHT22;21057;51.024;7.540;2024-03-23T05:31:37;6.20;99.90
15455;DHT22;21057;51.024;7.540;2024-03-23T05:34:03;6.20;99.90
15455;DHT22;21057;51.024;7.540;2024-03-23T05:36:30;6.30;99.90
15455;DHT22;21057;51.024;7.540;2024-03-23T05:38:58;6.20;99.90
15455;DHT22;21057;51.024;7.540;2024-03-23T05:41:24;6.50;99.90
15455;DHT22;21057;51.024;7.540;2024-03-23T05:43:50;6.60;99.90
15455;DHT22;21057;51.024;7.540;2024-03-23T05:46:17;6.40;99.90
15455;DHT22;21057;51.024;7.540;2024-03-23T05:48:44;6.40;99.90
15455;DHT22;21057;51.024;7.540;2024-03-23T05:51:11;6.30;99.90
15455;DHT22;21057;51.024;7.540;2024-03-23T05:53:38;6.30;99.90
15455;DHT22;21057;51.024;7.540;2024-03-23T05:56:05;6.30;99.90
15455;DHT22;21057;51.024;7.540;2024-03-23T05:58:31;6.40;99.90
15455;DHT22;21057;51.024;7.540;2024-03-23T06:00:59;6.60;99.90
15455;DHT22;21057;51.024;7.540;2024-03-23T06:03:25;6.50;99.90
15455;DHT22;21057;51.024;7.540;2024-03-23T06:05:54;6.70;99.90
15455;DHT22;21057;51.024;7.540;2024-03-23T06:08:19;6.70;99.90
15455;DHT22;21057;51.024;7.540;2024-03-23T06:10:46;6.60;99.90
15455;DHT22;21057;51.024;7.540;2024-03-23T06:13:12;6.50;99.90
15455;DHT22;21057;51.024;7.540;2024-03-23T06:15:39;6.60;99.90
15455;DHT22;21057;51.024;7.540;2024-03-23T06:18:05;6.80;99.90
15455;DHT22;21057;51.024;7.540;2024-03-23T06:20:33;6.70;99.90
15455;DHT22;21057;51.024;7.540;2024-03-23T06:23:01;6.80;99.90
15455;DHT22;21057;51.024;7.540;2024-03-23T06:25:28;6.90;99.90
15455;DHT22;21057;51.024;7.540;2024-03-23T06:27:54;6.70;99.90
15455;DHT22;21057;51.024;7.540;2024-03-23T06:30:21;6.60;99.90
15455;DHT22;21057;51.024;7.540;2024-03-23T06:32:47;6.30;99.90
15455;DHT22;21057;51.024;7.540;2024-03-23T06:35:14;6.30;99.90
15455;DHT22;21057;51.024;7.540;2024-03-23T06:37:40;6.40;99.90
15455;DHT22;21057;51.024;7.540;2024-03-23T06:40:08;6.30;99.90
15455;DHT22;21057;51.024;7.540;2024-03-23T06:42:36;6.20;99.90
15455;DHT22;21057;51.024;7.540;2024-03-23T06:45:04;6.00;99.90
15455;DHT22;21057;51.024;7.540;2024-03-23T06:47:30;6.20;99.90
15455;DHT22;21057;51.024;7.540;2024-03-23T06:49:57;6.20;99.90
15455;DHT22;21057;51.024;7.540;2024-03-23T06:52:23;6.00;99.90
15455;DHT22;21057;51.024;7.540;2024-03-23T06:54:53;6.20;99.90
15455;DHT22;21057;51.024;7.540;2024-03-23T06:57:20;6.10;99.90
15455;DHT22;21057;51.024;7.540;2024-03-23T06:59:47;5.80;99.90
15455;DHT22;21057;51.024;7.540;2024-03-23T07:02:13;5.60;99.90
15455;DHT22;21057;51.024;7.540;2024-03-23T07:04:40;5.70;99.90
15455;DHT22;21057;51.024;7.540;2024-03-23T07:07:05;5.70;99.90
15455;DHT22;21057;51.024;7.540;2024-03-23T07:09:32;5.60;99.90
15455;DHT22;21057;51.024;7.540;2024-03-23T07:11:58;5.90;99.90
15455;DHT22;21057;51.024;7.540;2024-03-23T07:14:26;6.30;99.90
15455;DHT22;21057;51.024;7.540;2024-03-23T07:16:52;6.40;99.90
15455;DHT22;21057;51.024;7.540;2024-03-23T07:19:19;6.20;99.90
15455;DHT22;21057;51.024;7.540;2024-03-23T07:21:45;6.40;99.90
15455;DHT22;21057;51.024;7.540;2024-03-23T07:24:13;6.60;99.90
15455;DHT22;21057;51.024;7.540;2024-03-23T07:26:40;6.50;99.90
15455;DHT22;21057;51.024;7.540;2024-03-23T07:29:07;6.50;99.90
15455;DHT22;21057;51.024;7.540;2024-03-23T07:31:35;6.50;99.90
15455;DHT22;21057;51.024;7.540;2024-03-23T07:34:00;6.50;99.90
15455;DHT22;21057;51.024;7.540;2024-03-23T07:36:27;6.40;99.90
15455;DHT22;21057;51.024;7.540;2024-03-23T07:38:53;6.70;99.90
15455;DHT22;21057;51.024;7.540;2024-03-23T07:41:21;6.80;99.90
15455;DHT22;21057;51.024;7.540;2024-03-23T07:43:47;7.20;99.90
15455;DHT22;21057;51.024;7.540;2024-03-23T07:46:15;6.80;99.90
15455;DHT22;21057;51.024;7.540;2024-03-23T07:48:43;6.80;99.90
15455;DHT22;21057;51.024;7.540;2024-03-23T07:51:11;6.70;99.90
15455;DHT22;21057;51.024;7.540;2024-03-23T07:53:37;6.50;99.90
15455;DHT22;21057;51.024;7.540;2024-03-23T07:56:06;6.60;99.90
15455;DHT22;21057;51.024;7.540;2024-03-23T07:58:33;6.90;99.90
15455;DHT22;21057;51.024;7.540;2024-03-23T08:01:04;7.00;99.90
15455;DHT22;21057;51.024;7.540;2024-03-23T08:03:30;7.00;99.90
15455;DHT22;21057;51.024;7.540;2024-03-23T08:05:59;7.20;99.90
15455;DHT22;21057;51.024;7.540;2024-03-23T08:08:31;7.20;99.90
15455;DHT22;21057;51.024;7.540;2024-03-23T08:10:58;7.30;99.90
15455;DHT22;21057;51.024;7.540;2024-03-23T08:13:24;7.40;99.90
15455;DHT22;21057;51.024;7.540;2024-03-23T08:15:51;7.40;99.90
15455;DHT22;21057;51.024;7.540;2024-03-23T08:18:16;7.40;99.90
15455;DHT22;21057;51.024;7.540;2024-03-23T08:20:43;7.00;99.90
15455;DHT22;21057;51.024;7.540;2024-03-23T08:23:10;6.70;99.90
15455;DHT22;21057;51.024;7.540;2024-03-23T08:25:37;6.90;99.90
15455;DHT22;21057;51.024;7.540;2024-03-23T08:28:04;7.20;99.90
15455;DHT22;21057;51.024;7.540;2024-03-23T08:30:30;7.70;99.90
15455;DHT22;21057;51.024;7.540;2024-03-23T08:32:56;7.80;99.90
15455;DHT22;21057;51.024;7.540;2024-03-23T08:35:24;7.80;99.90
15455;DHT22;21057;51.024;7.540;2024-03-23T08:37:50;7.60;99.90
15455;DHT22;21057;51.024;7.540;2024-03-23T08:40:18;7.50;99.90
15455;DHT22;21057;51.024;7.540;2024-03-23T08:42:44;7.80;99.90
15455;DHT22;21057;51.024;7.540;2024-03-23T08:45:11;8.10;99.90
15455;DHT22;21057;51.024;7.540;2024-03-23T08:47:37;8.60;99.90
15455;DHT22;21057;51.024;7.540;2024-03-23T08:50:04;8.20;99.90
15455;DHT22;21057;51.024;7.540;2024-03-23T08:52:30;8.30;99.90
15455;DHT22;21057;51.024;7.540;2024-03-23T08:54:58;8.40;99.90
15455;DHT22;21057;51.024;7.540;2024-03-23T08:57:26;8.80;99.90
15455;DHT22;21057;51.024;7.540;2024-03-23T08:59:52;8.90;99.90
15455;DHT22;21057;51.024;7.540;2024-03-23T09:02:18;8.90;99.90
15455;DHT22;21057;51.024;7.540;2024-03-23T09:04:45;8.40;99.90
15455;DHT22;21057;51.024;7.540;2024-03-23T09:07:11;8.40;99.90
15455;DHT22;21057;51.024;7.540;2024-03-23T09:09:38;8.50;99.90
15455;DHT22;21057;51.024;7.540;2024-03-23T09:12:05;8.70;99.90
15455;DHT22;21057;51.024;7.540;2024-03-23T09:14:33;9.00;99.90
15455;DHT22;21057;51.024;7.540;2024-03-23T09:16:59;8.80;99.90
15455;DHT22;21057;51.024;7.540;2024-03-23T09:19:27;8.70;99.90
15455;DHT22;21057;51.024;7.540;2024-03-23T09:21:53;8.70;99.90
15455;DHT22;21057;51.024;7.540;2024-03-23T09:24:20;8.50;99.90
15455;DHT22;21057;51.024;7.540;2024-03-23T09:26:46;8.40;99.90
15455;DHT22;21057;51.024;7.540;2024-03-23T09:29:13;8.40;99.90
15455;DHT22;21057;51.024;7.540;2024-03-23T09:31:40;8.10;99.90
15455;DHT22;21057;51.024;7.540;2024-03-23T09:34:07;8.20;99.90
15455;DHT22;21057;51.024;7.540;2024-03-23T09:36:33;8.10;99.90
15455;DHT22;21057;51.024;7.540;2024-03-23T09:39:00;8.10;99.90
15455;DHT22;21057;51.024;7.540;2024-03-23T09:41:25;8.30;99.90
15455;DHT22;21057;51.024;7.540;2024-03-23T09:43:53;8.40;99.90
15455;DHT22;21057;51.024;7.540;2024-03-23T09:46:19;8.20;99.90
15455;DHT22;21057;51.024;7.540;2024-03-23T09:48:48;7.80;99.90
15455;DHT22;21057;51.024;7.540;2024-03-23T09:51:14;7.80;99.90
15455;DHT22;21057;51.024;7.540;2024-03-23T09:53:41;7.90;99.90
15455;DHT22;21057;51.024;7.540;2024-03-23T09:56:07;7.70;99.90
15455;DHT22;21057;51.024;7.540;2024-03-23T09:58:34;7.60;99.90
15455;DHT22;21057;51.024;7.540;2024-03-23T10:01:01;7.60;99.90
15455;DHT22;21057;51.024;7.540;2024-03-23T10:03:28;7.70;99.90
15455;DHT22;21057;51.024;7.540;2024-03-23T10:06:02;7.90;99.90
15455;DHT22;21057;51.024;7.540;2024-03-23T10:08:30;8.20;99.90
15455;DHT22;21057;51.024;7.540;2024-03-23T10:10:56;8.30;99.90
15455;DHT22;21057;51.024;7.540;2024-03-23T10:13:27;8.30;99.90
15455;DHT22;21057;51.024;7.540;2024-03-23T10:15:55;8.80;99.90
15455;DHT22;21057;51.024;7.540;2024-03-23T10:18:23;8.20;99.90
15455;DHT22;21057;51.024;7.540;2024-03-23T10:20:52;8.20;99.90
15455;DHT22;21057;51.024;7.540;2024-03-23T10:23:22;8.20;99.90
15455;DHT22;21057;51.024;7.540;2024-03-23T10:25:48;7.90;99.90
15455;DHT22;21057;51.024;7.540;2024-03-23T10:28:15;7.70;99.90
15455;DHT22;21057;51.024;7.540;2024-03-23T10:30:41;7.90;99.90
15455;DHT22;21057;51.024;7.540;2024-03-23T10:33:09;8.60;99.90
15455;DHT22;21057;51.024;7.540;2024-03-23T10:35:35;9.00;99.90
15455;DHT22;21057;51.024;7.540;2024-03-23T10:38:04;9.80;99.90
15455;DHT22;21057;51.024;7.540;2024-03-23T10:40:33;11.10;99.90
15455;DHT22;21057;51.024;7.540;2024-03-23T10:43:01;11.40;99.90
15455;DHT22;21057;51.024;7.540;2024-03-23T10:45:28;11.00;99.90
15455;DHT22;21057;51.024;7.540;2024-03-23T10:47:55;10.60;99.90
15455;DHT22;21057;51.024;7.540;2024-03-23T10:50:21;10.60;99.90
15455;DHT22;21057;51.024;7.540;2024-03-23T10:52:49;10.20;99.90
15455;DHT22;21057;51.024;7.540;2024-03-23T10:55:17;9.90;99.90
15455;DHT22;21057;51.024;7.540;2024-03-23T10:57:51;9.30;99.90
15455;DHT22;21057;51.024;7.540;2024-03-23T11:00:18;9.50;99.90
15455;DHT22;21057;51.024;7.540;2024-03-23T11:02:47;10.00;99.90
15455;DHT22;21057;51.024;7.540;2024-03-23T11:05:29;10.10;99.90
15455;DHT22;21057;51.024;7.540;2024-03-23T11:07:57;9.70;99.90
15455;DHT22;21057;51.024;7.540;2024-03-23T11:10:26;9.50;99.90
15455;DHT22;21057;51.024;7.540;2024-03-23T11:12:56;9.40;99.90
15455;DHT22;21057;51.024;7.540;2024-03-23T11:15:22;9.10;99.90
15455;DHT22;21057;51.024;7.540;2024-03-23T11:18:02;8.80;99.90
15455;DHT22;21057;51.024;7.540;2024-03-23T11:20:32;8.50;99.90
15455;DHT22;21057;51.024;7.540;2024-03-23T11:22:59;8.10;99.90
15455;DHT22;21057;51.024;7.540;2024-03-23T11:25:26;7.30;99.90
15455;DHT22;21057;51.024;7.540;2024-03-23T11:27:55;6.40;99.90
15455;DHT22;21057;51.024;7.540;2024-03-23T11:30:23;6.00;99.90
15455;DHT22;21057;51.024;7.540;2024-03-23T11:32:51;6.00;99.90
15455;DHT22;21057;51.024;7.540;2024-03-23T11:35:30;5.90;99.90
15455;DHT22;21057;51.024;7.540;2024-03-23T11:38:05;6.00;99.90
15455;DHT22;21057;51.024;7.540;2024-03-23T11:40:31;6.00;99.90
15455;DHT22;21057;51.024;7.540;2024-03-23T11:43:01;6.30;99.90
15455;DHT22;21057;51.024;7.540;2024-03-23T11:45:28;6.70;99.90
15455;DHT22;21057;51.024;7.540;2024-03-23T11:48:14;6.60;99.90
15455;DHT22;21057;51.024;7.540;2024-03-23T11:50:41;6.40;99.90
15455;DHT22;21057;51.024;7.540;2024-03-23T11:53:19;6.20;99.90
15455;DHT22;21057;51.024;7.540;2024-03-23T11:55:47;5.90;99.90
15455;DHT22;21057;51.024;7.540;2024-03-23T11:58:17;5.60;99.90
15455;DHT22;21057;51.024;7.540;2024-03-23T12:00:49;5.10;99.90
15455;DHT22;21057;51.024;7.540;2024-03-23T12:03:17;5.00;99.90
15455;DHT22;21057;51.024;7.540;2024-03-23T12:05:48;5.50;99.90
15455;DHT22;21057;51.024;7.540;2024-03-23T12:08:18;5.80;99.90
15455;DHT22;21057;51.024;7.540;2024-03-23T12:10:47;6.10;99.90
15455;DHT22;21057;51.024;7.540;2024-03-23T12:13:17;6.40;99.90
15455;DHT22;21057;51.024;7.540;2024-03-23T12:15:43;6.50;99.90
15455;DHT22;21057;51.024;7.540;2024-03-23T12:18:11;6.40;99.90
15455;DHT22;21057;51.024;7.540;2024-03-23T12:20:37;6.60;99.90
15455;DHT22;21057;51.024;7.540;2024-03-23T12:23:05;6.70;99.90
15455;DHT22;21057;51.024;7.540;2024-03-23T12:25:32;6.90;99.90
15455;DHT22;21057;51.024;7.540;2024-03-23T12:27:59;6.90;99.90
15455;DHT22;21057;51.024;7.540;2024-03-23T12:30:26;6.90;99.90
15455;DHT22;21057;51.024;7.540;2024-03-23T12:32:53;7.10;99.90
15455;DHT22;21057;51.024;7.540;2024-03-23T12:35:20;7.10;99.90
15455;DHT22;21057;51.024;7.540;2024-03-23T12:37:46;7.10;99.90
15455;DHT22;21057;51.024;7.540;2024-03-23T12:40:12;7.30;99.90
15455;DHT22;21057;51.024;7.540;2024-03-23T12:42:39;7.50;99.90
15455;DHT22;21057;51.024;7.540;2024-03-23T12:45:06;8.20;99.90
15455;DHT22;21057;51.024;7.540;2024-03-23T12:47:34;8.90;99.90
15455;DHT22;21057;51.024;7.540;2024-03-23T12:50:00;9.70;99.90
15455;DHT22;21057;51.024;7.540;2024-03-23T12:52:27;9.80;99.90
15455;DHT22;21057;51.024;7.540;2024-03-23T12:54:55;9.80;99.90
15455;DHT22;21057;51.024;7.540;2024-03-23T12:57:23;9.70;99.90
15455;DHT22;21057;51.024;7.540;2024-03-23T12:59:50;9.40;99.90
15455;DHT22;21057;51.024;7.540;2024-03-23T13:02:18;9.10;99.90
15455;DHT22;21057;51.024;7.540;2024-03-23T13:04:49;8.60;99.90
15455;DHT22;21057;51.024;7.540;2024-03-23T13:07:16;8.50;99.90
15455;DHT22;21057;51.024;7.540;2024-03-23T13:09:42;8.10;99.90
15455;DHT22;21057;51.024;7.540;2024-03-23T13:12:09;7.80;99.90
15455;DHT22;21057;51.024;7.540;2024-03-23T13:14:34;7.70;99.90
15455;DHT22;21057;51.024;7.540;2024-03-23T13:17:02;7.90;99.90
15455;DHT22;21057;51.024;7.540;2024-03-23T13:19:28;8.80;99.90
15455;DHT22;21057;51.024;7.540;2024-03-23T13:21:58;8.70;99.90
15455;DHT22;21057;51.024;7.540;2024-03-23T13:24:24;8.50;99.90
15455;DHT22;21057;51.024;7.540;2024-03-23T13:26:51;7.80;99.90
15455;DHT22;21057;51.024;7.540;2024-03-23T13:29:18;7.10;99.90
15455;DHT22;21057;51.024;7.540;2024-03-23T13:31:45;6.80;99.90
15455;DHT22;21057;51.024;7.540;2024-03-23T13:34:10;7.30;99.90
15455;DHT22;21057;51.024;7.540;2024-03-23T13:36:38;8.10;99.90
15455;DHT22;21057;51.024;7.540;2024-03-23T13:39:06;9.00;99.90
15455;DHT22;21057;51.024;7.540;2024-03-23T13:41:37;10.30;99.90
15455;DHT22;21057;51.024;7.540;2024-03-23T13:44:03;11.00;99.90
15455;DHT22;21057;51.024;7.540;2024-03-23T13:46:30;11.30;99.90
15455;DHT22;21057;51.024;7.540;2024-03-23T13:48:56;10.80;99.90
15455;DHT22;21057;51.024;7.540;2024-03-23T13:51:23;11.70;99.90
15455;DHT22;21057;51.024;7.540;2024-03-23T13:53:50;11.70;99.90
15455;DHT22;21057;51.024;7.540;2024-03-23T13:56:18;11.30;99.90
15455;DHT22;21057;51.024;7.540;2024-03-23T13:58:44;11.50;99.90
15455;DHT22;21057;51.024;7.540;2024-03-23T14:01:13;11.00;99.90
15455;DHT22;21057;51.024;7.540;2024-03-23T14:03:39;11.30;99.90
15455;DHT22;21057;51.024;7.540;2024-03-23T14:06:06;11.40;99.90
15455;DHT22;21057;51.024;7.540;2024-03-23T14:08:33;11.70;99.90
15455;DHT22;21057;51.024;7.540;2024-03-23T14:11:02;11.80;99.90
15455;DHT22;21057;51.024;7.540;2024-03-23T14:13:30;11.90;99.90
15455;DHT22;21057;51.024;7.540;2024-03-23T14:15:57;11.20;99.90
15455;DHT22;21057;51.024;7.540;2024-03-23T14:18:23;10.80;99.90
15455;DHT22;21057;51.024;7.540;2024-03-23T14:20:52;10.80;99.90
15455;DHT22;21057;51.024;7.540;2024-03-23T14:23:18;11.00;99.90
15455;DHT22;21057;51.024;7.540;2024-03-23T14:25:45;10.50;99.90
15455;DHT22;21057;51.024;7.540;2024-03-23T14:28:11;10.80;99.90
15455;DHT22;21057;51.024;7.540;2024-03-23T14:30:42;10.70;99.90
15455;DHT22;21057;51.024;7.540;2024-03-23T14:33:08;11.10;99.90
15455;DHT22;21057;51.024;7.540;2024-03-23T14:35:35;11.10;99.90
15455;DHT22;21057;51.024;7.540;2024-03-23T14:38:01;10.80;99.90
15455;DHT22;21057;51.024;7.540;2024-03-23T14:40:28;10.20;99.90
15455;DHT22;21057;51.024;7.540;2024-03-23T14:42:55;10.30;99.90
15455;DHT22;21057;51.024;7.540;2024-03-23T14:45:22;9.80;99.90
15455;DHT22;21057;51.024;7.540;2024-03-23T14:47:51;9.40;99.90
15455;DHT22;21057;51.024;7.540;2024-03-23T14:50:18;9.40;99.90
15455;DHT22;21057;51.024;7.540;2024-03-23T14:52:44;9.10;99.90
15455;DHT22;21057;51.024;7.540;2024-03-23T14:55:11;8.60;99.90
15455;DHT22;21057;51.024;7.540;2024-03-23T14:57:38;8.00;99.90
15455;DHT22;21057;51.024;7.540;2024-03-23T15:00:07;8.10;99.90
15455;DHT22;21057;51.024;7.540;2024-03-23T15:02:33;8.50;99.90
15455;DHT22;21057;51.024;7.540;2024-03-23T15:05:02;8.70;99.90
15455;DHT22;21057;51.024;7.540;2024-03-23T15:07:29;8.70;99.90
15455;DHT22;21057;51.024;7.540;2024-03-23T15:09:56;8.60;99.90
15455;DHT22;21057;51.024;7.540;2024-03-23T15:12:22;8.60;99.90
15455;DHT22;21057;51.024;7.540;2024-03-23T15:14:49;8.70;99.90
15455;DHT22;21057;51.024;7.540;2024-03-23T15:17:15;8.90;99.90
15455;DHT22;21057;51.024;7.540;2024-03-23T15:19:41;8.70;99.90
15455;DHT22;21057;51.024;7.540;2024-03-23T15:22:09;8.70;99.90
15455;DHT22;21057;51.024;7.540;2024-03-23T15:24:41;8.60;99.90
15455;DHT22;21057;51.024;7.540;2024-03-23T15:27:07;8.60;99.90
15455;DHT22;21057;51.024;7.540;2024-03-23T15:29:34;8.60;99.90
15455;DHT22;21057;51.024;7.540;2024-03-23T15:32:02;8.80;99.90
15455;DHT22;21057;51.024;7.540;2024-03-23T15:34:29;8.70;99.90
15455;DHT22;21057;51.024;7.540;2024-03-23T15:36:55;8.40;99.90
15455;DHT22;21057;51.024;7.540;2024-03-23T15:39:23;8.10;99.90
15455;DHT22;21057;51.024;7.540;2024-03-23T15:41:49;8.10;99.90
15455;DHT22;21057;51.024;7.540;2024-03-23T15:44:15;7.70;99.90
15455;DHT22;21057;51.024;7.540;2024-03-23T15:46:41;7.10;99.90
15455;DHT22;21057;51.024;7.540;2024-03-23T15:49:08;6.70;99.90
15455;DHT22;21057;51.024;7.540;2024-03-23T15:51:34;6.50;99.90
15455;DHT22;21057;51.024;7.540;2024-03-23T15:54:02;6.30;99.90
15455;DHT22;21057;51.024;7.540;2024-03-23T15:56:30;6.40;99.90
15455;DHT22;21057;51.024;7.540;2024-03-23T15:58:57;6.40;99.90
15455;DHT22;21057;51.024;7.540;2024-03-23T16:01:30;6.60;99.90
15455;DHT22;21057;51.024;7.540;2024-03-23T16:03:59;6.70;99.90
15455;DHT22;21057;51.024;7.540;2024-03-23T16:06:25;6.90;99.90
15455;DHT22;21057;51.024;7.540;2024-03-23T16:08:52;7.10;99.90
15455;DHT22;21057;51.024;7.540;2024-03-23T16:11:18;7.50;99.90
15455;DHT22;21057;51.024;7.540;2024-03-23T16:13:47;8.00;99.90
15455;DHT22;21057;51.024;7.540;2024-03-23T16:16:13;8.50;99.90
15455;DHT22;21057;51.024;7.540;2024-03-23T16:18:41;8.60;99.90
15455;DHT22;21057;51.024;7.540;2024-03-23T16:21:07;8.40;99.90
15455;DHT22;21057;51.024;7.540;2024-03-23T16:23:35;8.30;99.90
15455;DHT22;21057;51.024;7.540;2024-03-23T16:26:03;8.10;99.90
15455;DHT22;21057;51.024;7.540;2024-03-23T16:28:31;8.00;99.90
15455;DHT22;21057;51.024;7.540;2024-03-23T16:30:59;7.70;99.90
15455;DHT22;21057;51.024;7.540;2024-03-23T16:33:27;7.70;99.90
15455;DHT22;21057;51.024;7.540;2024-03-23T16:36:00;7.80;99.90